sensor_id;sensor_type;location;lat;lon;timestamp;temperature;humidity
42099;DHT22;27758;55.900;8.516;2023-06-01T00:01:46;11.50;99.90
42099;DHT22;27758;55.900;8.516;2023-06-01T00:04:12;11.40;99.90
42099;DHT22;27758;55.900;8.516;2023-06-01T00:06:39;11.40;99.90
42099;DHT22;27758;55.900;8.516;2023-06-01T00:09:05;11.40;99.90
42099;DHT22;27758;55.900;8.516;2023-06-01T00:11:31;11.40;99.90
42099;DHT22;27758;55.900;8.516;2023-06-01T00:13:57;11.40;99.90
42099;DHT22;27758;55.900;8.516;2023-06-01T00:16:25;11.40;99.90
42099;DHT22;27758;55.900;8.516;2023-06-01T00:18:51;11.40;99.90
42099;DHT22;27758;55.900;8.516;2023-06-01T00:21:21;11.40;99.90
42099;DHT22;27758;55.900;8.516;2023-06-01T00:23:47;11.40;99.90
42099;DHT22;27758;55.900;8.516;2023-06-01T00:26:14;11.40;99.90
42099;DHT22;27758;55.900;8.516;2023-06-01T00:28:40;11.30;99.90
42099;DHT22;27758;55.900;8.516;2023-06-01T00:31:06;11.30;99.90
42099;DHT22;27758;55.900;8.516;2023-06-01T00:33:31;11.30;99.90
42099;DHT22;27758;55.900;8.516;2023-06-01T00:35:57;11.30;99.90
42099;DHT22;27758;55.900;8.516;2023-06-01T00:38:23;11.30;99.90
42099;DHT22;27758;55.900;8.516;2023-06-01T00:40:48;11.30;99.90
42099;DHT22;27758;55.900;8.516;2023-06-01T00:43:19;11.30;99.90
42099;DHT22;27758;55.900;8.516;2023-06-01T00:45:45;11.30;99.90
42099;DHT22;27758;55.900;8.516;2023-06-01T00:48:12;11.30;99.90
42099;DHT22;27758;55.900;8.516;2023-06-01T00:50:39;11.30;99.90
42099;DHT22;27758;55.900;8.516;2023-06-01T00:53:14;11.30;99.90
42099;DHT22;27758;55.900;8.516;2023-06-01T00:55:41;11.30;99.90
42099;DHT22;27758;55.900;8.516;2023-06-01T00:58:13;11.30;99.90
42099;DHT22;27758;55.900;8.516;2023-06-01T01:00:39;11.40;99.90
42099;DHT22;27758;55.900;8.516;2023-06-01T01:03:08;11.30;99.90
42099;DHT22;27758;55.900;8.516;2023-06-01T01:05:35;11.30;99.90
42099;DHT22;27758;55.900;8.516;2023-06-01T01:08:17;11.20;99.90
42099;DHT22;27758;55.900;8.516;2023-06-01T01:13:27;11.20;99.90
42099;DHT22;27758;55.900;8.516;2023-06-01T01:17:09;11.20;99.90
42099;DHT22;27758;55.900;8.516;2023-06-01T01:31:11;11.20;99.90
42099;DHT22;27758;55.900;8.516;2023-06-01T01:33:38;11.20;99.90
42099;DHT22;27758;55.900;8.516;2023-06-01T01:36:07;11.20;99.90
42099;DHT22;27758;55.900;8.516;2023-06-01T01:38:36;11.30;99.90
42099;DHT22;27758;55.900;8.516;2023-06-01T01:41:02;11.20;99.90
42099;DHT22;27758;55.900;8.516;2023-06-01T01:43:29;11.30;99.90
42099;DHT22;27758;55.900;8.516;2023-06-01T01:46:03;11.20;99.90
42099;DHT22;27758;55.900;8.516;2023-06-01T01:48:37;11.20;99.90
42099;DHT22;27758;55.900;8.516;2023-06-01T01:51:13;11.20;99.90
42099;DHT22;27758;55.900;8.516;2023-06-01T01:53:41;11.20;99.90
42099;DHT22;27758;55.900;8.516;2023-06-01T01:56:09;11.10;99.90
42099;DHT22;27758;55.900;8.516;2023-06-01T01:58:38;11.10;99.90
42099;DHT22;27758;55.900;8.516;2023-06-01T02:01:05;11.20;99.90
42099;DHT22;27758;55.900;8.516;2023-06-01T02:03:32;11.10;99.90
42099;DHT22;27758;55.900;8.516;2023-06-01T02:05:57;11.10;99.90
42099;DHT22;27758;55.900;8.516;2023-06-01T02:08:23;11.10;99.90
42099;DHT22;27758;55.900;8.516;2023-06-01T02:10:49;11.10;99.90
42099;DHT22;27758;55.900;8.516;2023-06-01T02:13:15;11.10;99.90
42099;DHT22;27758;55.900;8.516;2023-06-01T02:15:40;11.10;99.90
42099;DHT22;27758;55.900;8.516;2023-06-01T02:18:06;11.10;99.90
42099;DHT22;27758;55.900;8.516;2023-06-01T02:20:32;11.10;99.90
42099;DHT22;27758;55.900;8.516;2023-06-01T02:22:58;11.10;99.90
42099;DHT22;27758;55.900;8.516;2023-06-01T02:25:24;11.10;99.90
42099;DHT22;27758;55.900;8.516;2023-06-01T02:27:50;11.10;99.90
42099;DHT22;27758;55.900;8.516;2023-06-01T02:30:15;11.10;99.90
42099;DHT22;27758;55.900;8.516;2023-06-01T02:32:41;11.10;99.90
42099;DHT22;27758;55.900;8.516;2023-06-01T02:35:10;11.10;99.90
42099;DHT22;27758;55.900;8.516;2023-06-01T02:37:36;11.10;99.90
42099;DHT22;27758;55.900;8.516;2023-06-01T02:40:02;11.00;99.90
42099;DHT22;27758;55.900;8.516;2023-06-01T02:42:28;11.00;99.90
42099;DHT22;27758;55.900;8.516;2023-06-01T02:44:54;11.00;99.90
42099;DHT22;27758;55.900;8.516;2023-06-01T02:47:20;11.00;99.90
42099;DHT22;27758;55.900;8.516;2023-06-01T02:49:45;11.00;99.90
42099;DHT22;27758;55.900;8.516;2023-06-01T02:52:11;11.00;99.90
42099;DHT22;27758;55.900;8.516;2023-06-01T02:54:37;11.00;99.90
42099;DHT22;27758;55.900;8.516;2023-06-01T02:57:03;11.00;99.90
42099;DHT22;27758;55.900;8.516;2023-06-01T02:59:29;10.90;99.90
42099;DHT22;27758;55.900;8.516;2023-06-01T03:01:55;10.90;99.90
42099;DHT22;27758;55.900;8.516;2023-06-01T03:04:20;10.90;99.90
42099;DHT22;27758;55.900;8.516;2023-06-01T03:06:46;10.90;99.90
42099;DHT22;27758;55.900;8.516;2023-06-01T03:09:12;10.90;99.90
42099;DHT22;27758;55.900;8.516;2023-06-01T03:11:41;10.90;99.90
42099;DHT22;27758;55.900;8.516;2023-06-01T03:14:08;10.90;99.90
42099;DHT22;27758;55.900;8.516;2023-06-01T03:16:33;10.80;99.90
42099;DHT22;27758;55.900;8.516;2023-06-01T03:19:01;10.90;99.90
42099;DHT22;27758;55.900;8.516;2023-06-01T03:21:26;10.90;99.90
42099;DHT22;27758;55.900;8.516;2023-06-01T03:23:53;10.90;99.90
42099;DHT22;27758;55.900;8.516;2023-06-01T03:26:18;10.90;99.90
42099;DHT22;27758;55.900;8.516;2023-06-01T03:28:46;10.90;99.90
42099;DHT22;27758;55.900;8.516;2023-06-01T03:31:12;10.90;99.90
42099;DHT22;27758;55.900;8.516;2023-06-01T03:33:38;10.90;99.90
42099;DHT22;27758;55.900;8.516;2023-06-01T03:36:04;10.90;99.90
42099;DHT22;27758;55.900;8.516;2023-06-01T03:38:32;10.80;99.90
42099;DHT22;27758;55.900;8.516;2023-06-01T03:40:59;10.90;99.90
42099;DHT22;27758;55.900;8.516;2023-06-01T03:43:25;10.90;99.90
42099;DHT22;27758;55.900;8.516;2023-06-01T03:45:51;10.90;99.90
42099;DHT22;27758;55.900;8.516;2023-06-01T03:48:17;10.90;99.90
42099;DHT22;27758;55.900;8.516;2023-06-01T03:50:42;10.90;99.90
42099;DHT22;27758;55.900;8.516;2023-06-01T03:53:08;10.90;99.90
42099;DHT22;27758;55.900;8.516;2023-06-01T03:55:34;10.90;99.90
42099;DHT22;27758;55.900;8.516;2023-06-01T03:58:01;11.00;99.90
42099;DHT22;27758;55.900;8.516;2023-06-01T04:00:28;11.00;99.90
42099;DHT22;27758;55.900;8.516;2023-06-01T04:02:56;11.00;99.90
42099;DHT22;27758;55.900;8.516;2023-06-01T04:05:24;11.00;99.90
42099;DHT22;27758;55.900;8.516;2023-06-01T04:07:54;11.00;99.90
42099;DHT22;27758;55.900;8.516;2023-06-01T04:10:20;11.00;99.90
42099;DHT22;27758;55.900;8.516;2023-06-01T04:12:48;11.00;99.90
42099;DHT22;27758;55.900;8.516;2023-06-01T04:15:16;11.00;99.90
42099;DHT22;27758;55.900;8.516;2023-06-01T04:17:43;11.00;99.90
42099;DHT22;27758;55.900;8.516;2023-06-01T04:20:12;11.00;99.90
42099;DHT22;27758;55.900;8.516;2023-06-01T04:22:39;11.00;99.90
42099;DHT22;27758;55.900;8.516;2023-06-01T04:25:06;10.90;99.90
42099;DHT22;27758;55.900;8.516;2023-06-01T04:27:34;11.00;99.90
42099;DHT22;27758;55.900;8.516;2023-06-01T04:30:04;11.00;99.90
42099;DHT22;27758;55.900;8.516;2023-06-01T04:32:34;11.10;99.90
42099;DHT22;27758;55.900;8.516;2023-06-01T04:35:01;11.10;99.90
42099;DHT22;27758;55.900;8.516;2023-06-01T04:37:39;11.10;99.90
42099;DHT22;27758;55.900;8.516;2023-06-01T04:40:06;11.10;99.90
42099;DHT22;27758;55.900;8.516;2023-06-01T04:42:34;11.10;99.90
42099;DHT22;27758;55.900;8.516;2023-06-01T04:45:01;11.10;99.90
42099;DHT22;27758;55.900;8.516;2023-06-01T04:47:31;11.20;99.90
42099;DHT22;27758;55.900;8.516;2023-06-01T04:49:57;11.20;99.90
42099;DHT22;27758;55.900;8.516;2023-06-01T04:52:23;11.20;99.90
42099;DHT22;27758;55.900;8.516;2023-06-01T04:54:50;11.10;99.90
42099;DHT22;27758;55.900;8.516;2023-06-01T04:57:18;11.10;99.90
42099;DHT22;27758;55.900;8.516;2023-06-01T04:59:47;11.10;99.90
42099;DHT22;27758;55.900;8.516;2023-06-01T05:02:13;11.10;99.90
42099;DHT22;27758;55.900;8.516;2023-06-01T05:04:39;11.10;99.90
42099;DHT22;27758;55.900;8.516;2023-06-01T05:07:05;11.10;99.90
42099;DHT22;27758;55.900;8.516;2023-06-01T05:09:31;11.10;99.90
42099;DHT22;27758;55.900;8.516;2023-06-01T05:11:57;11.10;99.90
42099;DHT22;27758;55.900;8.516;2023-06-01T05:14:23;11.10;99.90
42099;DHT22;27758;55.900;8.516;2023-06-01T05:16:48;11.10;99.90
42099;DHT22;27758;55.900;8.516;2023-06-01T05:19:14;11.10;99.90
42099;DHT22;27758;55.900;8.516;2023-06-01T05:21:42;11.10;99.90
42099;DHT22;27758;55.900;8.516;2023-06-01T05:24:09;11.20;99.90
42099;DHT22;27758;55.900;8.516;2023-06-01T05:26:34;11.20;99.90
42099;DHT22;27758;55.900;8.516;2023-06-01T05:29:03;11.20;99.90
42099;DHT22;27758;55.900;8.516;2023-06-01T05:31:29;11.20;99.90
42099;DHT22;27758;55.900;8.516;2023-06-01T05:33:56;11.20;99.90
42099;DHT22;27758;55.900;8.516;2023-06-01T05:36:22;11.20;99.90
42099;DHT22;27758;55.900;8.516;2023-06-01T05:38:48;11.20;99.90
42099;DHT22;27758;55.900;8.516;2023-06-01T05:41:13;11.20;99.90
42099;DHT22;27758;55.900;8.516;2023-06-01T05:43:39;11.20;99.90
42099;DHT22;27758;55.900;8.516;2023-06-01T05:46:05;11.30;99.90
42099;DHT22;27758;55.900;8.516;2023-06-01T05:48:32;11.30;99.90
42099;DHT22;27758;55.900;8.516;2023-06-01T05:50:57;11.20;99.90
42099;DHT22;27758;55.900;8.516;2023-06-01T05:53:23;11.30;99.90
42099;DHT22;27758;55.900;8.516;2023-06-01T05:55:52;11.30;99.90
42099;DHT22;27758;55.900;8.516;2023-06-01T05:58:18;11.40;99.90
42099;DHT22;27758;55.900;8.516;2023-06-01T06:00:44;11.40;99.90
42099;DHT22;27758;55.900;8.516;2023-06-01T06:03:13;11.40;99.90
42099;DHT22;27758;55.900;8.516;2023-06-01T06:05:42;11.50;99.90
42099;DHT22;27758;55.900;8.516;2023-06-01T06:08:07;11.50;99.90
42099;DHT22;27758;55.900;8.516;2023-06-01T06:10:33;11.60;99.90
42099;DHT22;27758;55.900;8.516;2023-06-01T06:12:59;11.60;99.90
42099;DHT22;27758;55.900;8.516;2023-06-01T06:15:24;11.70;99.90
42099;DHT22;27758;55.900;8.516;2023-06-01T06:17:50;11.70;99.90
42099;DHT22;27758;55.900;8.516;2023-06-01T06:20:16;11.80;99.90
42099;DHT22;27758;55.900;8.516;2023-06-01T06:22:42;11.70;99.90
42099;DHT22;27758;55.900;8.516;2023-06-01T06:25:08;11.70;99.90
42099;DHT22;27758;55.900;8.516;2023-06-01T06:27:34;11.80;99.90
42099;DHT22;27758;55.900;8.516;2023-06-01T06:30:03;11.90;99.90
42099;DHT22;27758;55.900;8.516;2023-06-01T06:32:28;12.00;99.90
42099;DHT22;27758;55.900;8.516;2023-06-01T06:34:54;12.00;99.90
42099;DHT22;27758;55.900;8.516;2023-06-01T06:37:20;11.90;99.90
42099;DHT22;27758;55.900;8.516;2023-06-01T06:39:46;12.00;99.90
42099;DHT22;27758;55.900;8.516;2023-06-01T06:42:11;12.00;99.90
42099;DHT22;27758;55.900;8.516;2023-06-01T06:44:37;12.00;99.90
42099;DHT22;27758;55.900;8.516;2023-06-01T06:47:03;12.10;99.90
42099;DHT22;27758;55.900;8.516;2023-06-01T06:49:28;12.20;99.90
42099;DHT22;27758;55.900;8.516;2023-06-01T06:51:54;12.20;99.90
42099;DHT22;27758;55.900;8.516;2023-06-01T06:54:20;12.40;99.90
42099;DHT22;27758;55.900;8.516;2023-06-01T06:56:46;12.40;99.90
42099;DHT22;27758;55.900;8.516;2023-06-01T06:59:12;12.60;99.90
42099;DHT22;27758;55.900;8.516;2023-06-01T07:01:39;12.80;99.90
42099;DHT22;27758;55.900;8.516;2023-06-01T07:04:06;13.00;99.90
42099;DHT22;27758;55.900;8.516;2023-06-01T07:06:32;13.10;99.90
42099;DHT22;27758;55.900;8.516;2023-06-01T07:08:59;13.30;99.90
42099;DHT22;27758;55.900;8.516;2023-06-01T07:11:26;13.40;99.90
42099;DHT22;27758;55.900;8.516;2023-06-01T07:13:55;13.40;99.90
42099;DHT22;27758;55.900;8.516;2023-06-01T07:16:25;13.50;99.90
42099;DHT22;27758;55.900;8.516;2023-06-01T07:18:51;13.50;99.90
42099;DHT22;27758;55.900;8.516;2023-06-01T07:21:18;13.50;99.90
42099;DHT22;27758;55.900;8.516;2023-06-01T07:23:45;13.70;99.90
42099;DHT22;27758;55.900;8.516;2023-06-01T07:26:11;14.20;99.90
42099;DHT22;27758;55.900;8.516;2023-06-01T07:28:38;14.60;99.90
42099;DHT22;27758;55.900;8.516;2023-06-01T07:31:04;14.80;99.90
42099;DHT22;27758;55.900;8.516;2023-06-01T07:33:31;15.00;99.90
42099;DHT22;27758;55.900;8.516;2023-06-01T07:35:56;15.00;99.90
42099;DHT22;27758;55.900;8.516;2023-06-01T07:38:23;15.10;99.90
42099;DHT22;27758;55.900;8.516;2023-06-01T07:40:51;15.30;99.90
42099;DHT22;27758;55.900;8.516;2023-06-01T07:43:17;15.40;99.90
42099;DHT22;27758;55.900;8.516;2023-06-01T07:45:42;15.50;99.90
42099;DHT22;27758;55.900;8.516;2023-06-01T07:48:08;15.70;99.90
42099;DHT22;27758;55.900;8.516;2023-06-01T07:50:34;15.70;99.90
42099;DHT22;27758;55.900;8.516;2023-06-01T07:53:00;15.80;99.90
42099;DHT22;27758;55.900;8.516;2023-06-01T07:55:31;16.00;99.90
42099;DHT22;27758;55.900;8.516;2023-06-01T07:57:57;16.30;99.90
42099;DHT22;27758;55.900;8.516;2023-06-01T08:00:23;16.40;99.90
42099;DHT22;27758;55.900;8.516;2023-06-01T08:02:50;16.50;99.90
42099;DHT22;27758;55.900;8.516;2023-06-01T08:05:16;16.70;99.90
42099;DHT22;27758;55.900;8.516;2023-06-01T08:07:43;16.80;99.90
42099;DHT22;27758;55.900;8.516;2023-06-01T08:10:09;17.20;99.90
42099;DHT22;27758;55.900;8.516;2023-06-01T08:12:35;17.10;99.90
42099;DHT22;27758;55.900;8.516;2023-06-01T08:15:02;17.00;99.90
42099;DHT22;27758;55.900;8.516;2023-06-01T08:17:29;17.40;99.90
42099;DHT22;27758;55.900;8.516;2023-06-01T08:19:55;17.40;99.90
42099;DHT22;27758;55.900;8.516;2023-06-01T08:22:23;17.50;99.90
42099;DHT22;27758;55.900;8.516;2023-06-01T08:24:49;17.60;99.90
42099;DHT22;27758;55.900;8.516;2023-06-01T08:27:23;17.80;99.90
42099;DHT22;27758;55.900;8.516;2023-06-01T08:29:49;17.60;99.90
42099;DHT22;27758;55.900;8.516;2023-06-01T08:32:16;17.50;99.90
42099;DHT22;27758;55.900;8.516;2023-06-01T08:34:46;17.60;99.90
42099;DHT22;27758;55.900;8.516;2023-06-01T08:37:12;18.00;99.90
42099;DHT22;27758;55.900;8.516;2023-06-01T08:39:39;18.10;99.90
42099;DHT22;27758;55.900;8.516;2023-06-01T08:44:35;17.70;99.90
42099;DHT22;27758;55.900;8.516;2023-06-01T08:47:03;17.50;99.90
42099;DHT22;27758;55.900;8.516;2023-06-01T08:49:33;17.70;99.90
42099;DHT22;27758;55.900;8.516;2023-06-01T08:52:00;17.90;99.90
42099;DHT22;27758;55.900;8.516;2023-06-01T08:54:27;18.00;99.90
42099;DHT22;27758;55.900;8.516;2023-06-01T08:56:59;18.20;99.90
42099;DHT22;27758;55.900;8.516;2023-06-01T08:59:26;18.30;99.90
42099;DHT22;27758;55.900;8.516;2023-06-01T09:01:53;18.00;99.90
42099;DHT22;27758;55.900;8.516;2023-06-01T09:04:19;18.20;99.90
42099;DHT22;27758;55.900;8.516;2023-06-01T09:06:44;18.20;99.90
42099;DHT22;27758;55.900;8.516;2023-06-01T09:09:12;18.50;99.90
42099;DHT22;27758;55.900;8.516;2023-06-01T09:11:38;18.50;99.90
42099;DHT22;27758;55.900;8.516;2023-06-01T09:14:22;18.70;99.90
42099;DHT22;27758;55.900;8.516;2023-06-01T09:16:48;19.00;99.90
42099;DHT22;27758;55.900;8.516;2023-06-01T09:19:17;18.80;99.90
42099;DHT22;27758;55.900;8.516;2023-06-01T09:21:56;18.90;99.90
42099;DHT22;27758;55.900;8.516;2023-06-01T09:24:23;19.20;99.90
42099;DHT22;27758;55.900;8.516;2023-06-01T09:26:49;19.10;99.90
42099;DHT22;27758;55.900;8.516;2023-06-01T09:29:15;19.00;99.90
42099;DHT22;27758;55.900;8.516;2023-06-01T09:31:46;19.30;99.90
42099;DHT22;27758;55.900;8.516;2023-06-01T09:36:45;19.10;99.90
42099;DHT22;27758;55.900;8.516;2023-06-01T09:39:12;18.90;99.90
42099;DHT22;27758;55.900;8.516;2023-06-01T09:41:56;19.00;99.90
42099;DHT22;27758;55.900;8.516;2023-06-01T09:44:33;19.30;99.90
42099;DHT22;27758;55.900;8.516;2023-06-01T09:47:04;19.60;99.90
42099;DHT22;27758;55.900;8.516;2023-06-01T09:49:41;19.80;99.90
42099;DHT22;27758;55.900;8.516;2023-06-01T09:52:08;19.80;99.90
42099;DHT22;27758;55.900;8.516;2023-06-01T09:54:38;19.80;99.90
42099;DHT22;27758;55.900;8.516;2023-06-01T09:57:05;19.80;99.90
42099;DHT22;27758;55.900;8.516;2023-06-01T09:59:45;20.10;99.90
42099;DHT22;27758;55.900;8.516;2023-06-01T10:02:22;20.30;99.90
42099;DHT22;27758;55.900;8.516;2023-06-01T10:04:52;20.60;99.90
42099;DHT22;27758;55.900;8.516;2023-06-01T10:07:20;20.50;99.90
42099;DHT22;27758;55.900;8.516;2023-06-01T10:09:55;20.40;99.90
42099;DHT22;27758;55.900;8.516;2023-06-01T10:12:26;20.50;99.90
42099;DHT22;27758;55.900;8.516;2023-06-01T10:14:53;20.70;99.90
42099;DHT22;27758;55.900;8.516;2023-06-01T10:17:19;20.70;99.90
42099;DHT22;27758;55.900;8.516;2023-06-01T10:19:45;21.10;99.90
42099;DHT22;27758;55.900;8.516;2023-06-01T10:22:11;21.30;99.90
42099;DHT22;27758;55.900;8.516;2023-06-01T10:24:38;21.10;99.90
42099;DHT22;27758;55.900;8.516;2023-06-01T10:29:48;21.10;99.90
42099;DHT22;27758;55.900;8.516;2023-06-01T10:35:03;21.30;99.90
42099;DHT22;27758;55.900;8.516;2023-06-01T10:37:29;21.10;99.90
42099;DHT22;27758;55.900;8.516;2023-06-01T10:42:40;21.90;99.90
42099;DHT22;27758;55.900;8.516;2023-06-01T10:45:06;21.80;99.90
42099;DHT22;27758;55.900;8.516;2023-06-01T10:52:30;22.00;99.90
42099;DHT22;27758;55.900;8.516;2023-06-01T10:57:32;21.70;99.90
42099;DHT22;27758;55.900;8.516;2023-06-01T11:00:14;21.60;99.90
42099;DHT22;27758;55.900;8.516;2023-06-01T11:10:54;21.80;99.90
42099;DHT22;27758;55.900;8.516;2023-06-01T11:13:23;21.80;99.90
42099;DHT22;27758;55.900;8.516;2023-06-01T11:21:18;21.90;99.90
42099;DHT22;27758;55.900;8.516;2023-06-01T11:23:50;21.80;99.90
42099;DHT22;27758;55.900;8.516;2023-06-01T11:26:22;21.60;99.90
42099;DHT22;27758;55.900;8.516;2023-06-01T11:28:51;21.40;99.90
42099;DHT22;27758;55.900;8.516;2023-06-01T11:31:18;21.40;99.90
42099;DHT22;27758;55.900;8.516;2023-06-01T11:33:52;21.60;99.90
42099;DHT22;27758;55.900;8.516;2023-06-01T11:36:23;21.50;99.90
42099;DHT22;27758;55.900;8.516;2023-06-01T11:38:53;21.50;99.90
42099;DHT22;27758;55.900;8.516;2023-06-01T11:41:22;21.70;99.90
42099;DHT22;27758;55.900;8.516;2023-06-01T11:43:57;21.80;99.90
42099;DHT22;27758;55.900;8.516;2023-06-01T11:46:24;22.00;99.90
42099;DHT22;27758;55.900;8.516;2023-06-01T11:49:02;22.10;99.90
42099;DHT22;27758;55.900;8.516;2023-06-01T11:51:36;21.60;99.90
42099;DHT22;27758;55.900;8.516;2023-06-01T11:54:03;21.40;99.90
42099;DHT22;27758;55.900;8.516;2023-06-01T11:56:34;21.50;99.90
42099;DHT22;27758;55.900;8.516;2023-06-01T11:59:04;21.50;99.90
42099;DHT22;27758;55.900;8.516;2023-06-01T12:01:34;21.80;99.90
42099;DHT22;27758;55.900;8.516;2023-06-01T12:04:03;21.60;99.90
42099;DHT22;27758;55.900;8.516;2023-06-01T12:06:30;21.50;99.90
42099;DHT22;27758;55.900;8.516;2023-06-01T12:08:56;21.50;99.90
42099;DHT22;27758;55.900;8.516;2023-06-01T12:11:25;21.40;99.90
42099;DHT22;27758;55.900;8.516;2023-06-01T12:14:01;21.20;99.90
42099;DHT22;27758;55.900;8.516;2023-06-01T12:16:53;21.20;99.90
42099;DHT22;27758;55.900;8.516;2023-06-01T12:19:20;21.20;99.90
42099;DHT22;27758;55.900;8.516;2023-06-01T12:21:50;20.90;99.90
42099;DHT22;27758;55.900;8.516;2023-06-01T12:24:27;20.90;99.90
42099;DHT22;27758;55.900;8.516;2023-06-01T12:26:54;21.00;99.90
42099;DHT22;27758;55.900;8.516;2023-06-01T12:29:40;21.00;99.90
42099;DHT22;27758;55.900;8.516;2023-06-01T12:32:07;20.90;99.90
42099;DHT22;27758;55.900;8.516;2023-06-01T12:34:38;21.00;99.90
42099;DHT22;27758;55.900;8.516;2023-06-01T12:39:38;20.70;99.90
42099;DHT22;27758;55.900;8.516;2023-06-01T12:42:05;20.70;99.90
42099;DHT22;27758;55.900;8.516;2023-06-01T12:44:31;20.30;99.90
42099;DHT22;27758;55.900;8.516;2023-06-01T12:47:00;20.20;99.90
42099;DHT22;27758;55.900;8.516;2023-06-01T12:49:26;20.20;99.90
42099;DHT22;27758;55.900;8.516;2023-06-01T12:51:52;20.30;99.90
42099;DHT22;27758;55.900;8.516;2023-06-01T12:54:18;20.30;99.90
42099;DHT22;27758;55.900;8.516;2023-06-01T12:56:44;20.10;99.90
42099;DHT22;27758;55.900;8.516;2023-06-01T12:59:12;20.00;99.90
42099;DHT22;27758;55.900;8.516;2023-06-01T13:01:38;20.00;99.90
42099;DHT22;27758;55.900;8.516;2023-06-01T13:04:03;19.90;99.90
42099;DHT22;27758;55.900;8.516;2023-06-01T13:06:29;19.80;99.90
42099;DHT22;27758;55.900;8.516;2023-06-01T13:08:55;19.60;99.90
42099;DHT22;27758;55.900;8.516;2023-06-01T13:11:21;19.40;99.90
42099;DHT22;27758;55.900;8.516;2023-06-01T13:13:48;19.30;99.90
42099;DHT22;27758;55.900;8.516;2023-06-01T13:16:14;19.30;99.90
42099;DHT22;27758;55.900;8.516;2023-06-01T13:18:40;19.30;99.90
42099;DHT22;27758;55.900;8.516;2023-06-01T13:21:07;19.20;99.90
42099;DHT22;27758;55.900;8.516;2023-06-01T13:23:33;19.00;99.90
42099;DHT22;27758;55.900;8.516;2023-06-01T13:25:58;19.10;99.90
42099;DHT22;27758;55.900;8.516;2023-06-01T13:28:24;19.20;99.90
42099;DHT22;27758;55.900;8.516;2023-06-01T13:30:50;19.40;99.90
42099;DHT22;27758;55.900;8.516;2023-06-01T13:33:16;19.40;99.90
42099;DHT22;27758;55.900;8.516;2023-06-01T13:35:41;19.50;99.90
42099;DHT22;27758;55.900;8.516;2023-06-01T13:38:08;19.50;99.90
42099;DHT22;27758;55.900;8.516;2023-06-01T13:40:36;19.40;99.90
42099;DHT22;27758;55.900;8.516;2023-06-01T13:43:02;19.20;99.90
42099;DHT22;27758;55.900;8.516;2023-06-01T13:45:27;19.20;99.90
42099;DHT22;27758;55.900;8.516;2023-06-01T13:47:53;19.00;99.90
42099;DHT22;27758;55.900;8.516;2023-06-01T13:50:20;19.00;99.90
42099;DHT22;27758;55.900;8.516;2023-06-01T13:52:48;19.00;99.90
42099;DHT22;27758;55.900;8.516;2023-06-01T13:55:13;19.00;99.90
42099;DHT22;27758;55.900;8.516;2023-06-01T13:57:40;18.90;99.90
42099;DHT22;27758;55.900;8.516;2023-06-01T14:00:07;18.90;99.90
42099;DHT22;27758;55.900;8.516;2023-06-01T14:02:39;19.10;99.90
42099;DHT22;27758;55.900;8.516;2023-06-01T14:05:05;19.00;99.90
42099;DHT22;27758;55.900;8.516;2023-06-01T14:07:31;18.90;99.90
42099;DHT22;27758;55.900;8.516;2023-06-01T14:09:57;18.80;99.90
42099;DHT22;27758;55.900;8.516;2023-06-01T14:12:32;18.90;99.90
42099;DHT22;27758;55.900;8.516;2023-06-01T14:14:57;18.80;99.90
42099;DHT22;27758;55.900;8.516;2023-06-01T14:17:23;19.00;99.90
42099;DHT22;27758;55.900;8.516;2023-06-01T14:19:49;18.90;99.90
42099;DHT22;27758;55.900;8.516;2023-06-01T14:22:15;19.00;99.90
42099;DHT22;27758;55.900;8.516;2023-06-01T14:24:40;18.90;99.90
42099;DHT22;27758;55.900;8.516;2023-06-01T14:27:06;18.90;99.90
42099;DHT22;27758;55.900;8.516;2023-06-01T14:29:34;19.00;99.90
42099;DHT22;27758;55.900;8.516;2023-06-01T14:32:00;19.20;99.90
42099;DHT22;27758;55.900;8.516;2023-06-01T14:34:26;19.20;99.90
42099;DHT22;27758;55.900;8.516;2023-06-01T14:36:51;19.20;99.90
42099;DHT22;27758;55.900;8.516;2023-06-01T14:39:17;19.20;99.90
42099;DHT22;27758;55.900;8.516;2023-06-01T14:41:43;19.20;99.90
42099;DHT22;27758;55.900;8.516;2023-06-01T14:44:08;19.30;99.90
42099;DHT22;27758;55.900;8.516;2023-06-01T14:46:34;19.40;99.90
42099;DHT22;27758;55.900;8.516;2023-06-01T14:49:00;19.40;99.90
42099;DHT22;27758;55.900;8.516;2023-06-01T14:51:28;19.50;99.90
42099;DHT22;27758;55.900;8.516;2023-06-01T14:53:54;19.40;99.90
42099;DHT22;27758;55.900;8.516;2023-06-01T14:56:20;19.50;99.90
42099;DHT22;27758;55.900;8.516;2023-06-01T14:58:47;19.50;99.90
42099;DHT22;27758;55.900;8.516;2023-06-01T15:01:13;19.40;99.90
42099;DHT22;27758;55.900;8.516;2023-06-01T15:03:39;19.30;99.90
42099;DHT22;27758;55.900;8.516;2023-06-01T15:06:05;19.10;99.90
42099;DHT22;27758;55.900;8.516;2023-06-01T15:08:31;19.10;99.90
42099;DHT22;27758;55.900;8.516;2023-06-01T15:10:57;19.00;99.90
42099;DHT22;27758;55.900;8.516;2023-06-01T15:13:23;19.10;99.90
42099;DHT22;27758;55.900;8.516;2023-06-01T15:15:48;19.20;99.90
42099;DHT22;27758;55.900;8.516;2023-06-01T15:18:14;19.30;99.90
42099;DHT22;27758;55.900;8.516;2023-06-01T15:20:40;19.20;99.90
42099;DHT22;27758;55.900;8.516;2023-06-01T15:23:06;19.20;99.90
42099;DHT22;27758;55.900;8.516;2023-06-01T15:25:32;19.10;99.90
42099;DHT22;27758;55.900;8.516;2023-06-01T15:27:57;19.20;99.90
42099;DHT22;27758;55.900;8.516;2023-06-01T15:30:23;19.30;99.90
42099;DHT22;27758;55.900;8.516;2023-06-01T15:32:49;19.40;99.90
42099;DHT22;27758;55.900;8.516;2023-06-01T15:35:14;19.40;99.90
42099;DHT22;27758;55.900;8.516;2023-06-01T15:37:40;19.40;99.90
42099;DHT22;27758;55.900;8.516;2023-06-01T15:40:12;19.40;99.90
42099;DHT22;27758;55.900;8.516;2023-06-01T15:42:38;19.20;99.90
42099;DHT22;27758;55.900;8.516;2023-06-01T15:45:06;19.20;99.90
42099;DHT22;27758;55.900;8.516;2023-06-01T15:47:32;19.20;99.90
42099;DHT22;27758;55.900;8.516;2023-06-01T15:49:57;19.10;99.90
42099;DHT22;27758;55.900;8.516;2023-06-01T15:52:23;19.20;99.90
42099;DHT22;27758;55.900;8.516;2023-06-01T15:54:49;19.20;99.90
42099;DHT22;27758;55.900;8.516;2023-06-01T15:57:15;19.20;99.90
42099;DHT22;27758;55.900;8.516;2023-06-01T15:59:41;19.00;99.90
42099;DHT22;27758;55.900;8.516;2023-06-01T16:02:07;19.00;99.90
42099;DHT22;27758;55.900;8.516;2023-06-01T16:04:32;19.00;99.90
42099;DHT22;27758;55.900;8.516;2023-06-01T16:06:58;18.90;99.90
42099;DHT22;27758;55.900;8.516;2023-06-01T16:09:24;18.90;99.90
42099;DHT22;27758;55.900;8.516;2023-06-01T16:11:49;18.90;99.90
42099;DHT22;27758;55.900;8.516;2023-06-01T16:14:15;18.80;99.90
42099;DHT22;27758;55.900;8.516;2023-06-01T16:16:41;18.70;99.90
42099;DHT22;27758;55.900;8.516;2023-06-01T16:19:07;18.50;99.90
42099;DHT22;27758;55.900;8.516;2023-06-01T16:21:32;18.50;99.90
42099;DHT22;27758;55.900;8.516;2023-06-01T16:23:58;18.40;99.90